Time;durP1;ratioP1;P1;durP2;ratioP2;P2;SDS_P1;SDS_P2;PMS_P1;PMS_P2;Temp;Humidity;BMP_temperature;BMP_pressure;BME280_temperature;BME280_humidity;BME280_pressure;Samples;Min_cycle;Max_cycle;Signal;HPM_P1;HPM_P2
2024/01/26 00:00:41;;;;;;;3.60;2.40;;;;;;;8.72;99.98;99937.32;108135;1280;21994;-60
2024/01/26 00:03:06;;;;;;;4.00;2.20;;;;;;;8.69;99.97;99935.95;108078;1281;21971;-66
2024/01/26 00:05:37;;;;;;;3.40;2.10;;;;;;;8.69;99.74;99937.52;108197;1286;22000;-59
2024/01/26 00:08:03;;;;;;;4.50;2.00;;;;;;;8.69;99.14;99936.29;108302;1286;22020;-65
2024/01/26 00:10:29;;;;;;;3.40;2.30;;;;;;;8.67;98.76;99939.83;108187;1278;21993;-59
2024/01/26 00:12:54;;;;;;;4.40;2.30;;;;;;;8.63;98.78;99943.02;108181;1286;21991;-65
2024/01/26 00:15:20;;;;;;;4.70;2.70;;;;;;;8.57;98.71;99939.95;108171;1273;21989;-65
2024/01/26 00:17:45;;;;;;;3.10;2.20;;;;;;;8.54;98.39;99941.89;108184;1278;21992;-59
2024/01/26 00:20:11;;;;;;;5.30;2.60;;;;;;;8.50;98.07;99945.25;108167;1286;22004;-66
2024/01/26 00:22:36;;;;;;;3.80;2.30;;;;;;;8.47;97.94;99943.67;108131;1286;21986;-61
2024/01/26 00:25:02;;;;;;;4.30;2.30;;;;;;;8.44;98.32;99942.48;108129;1286;21987;-59
2024/01/26 00:27:28;;;;;;;4.70;2.40;;;;;;;8.41;98.52;99943.90;108274;1286;21986;-59
2024/01/26 00:29:54;;;;;;;4.00;2.50;;;;;;;8.39;98.86;99942.55;108199;1286;21986;-65
2024/01/26 00:32:19;;;;;;;5.80;2.80;;;;;;;8.38;99.20;99941.16;108111;1286;21983;-65
2024/01/26 00:34:45;;;;;;;3.90;2.70;;;;;;;8.38;99.62;99941.86;108251;1286;21989;-65
2024/01/26 00:37:10;;;;;;;5.90;3.40;;;;;;;8.38;99.54;99946.92;108164;1281;21981;-64
2024/01/26 00:39:36;;;;;;;4.80;2.80;;;;;;;8.39;99.47;99943.95;108095;1286;23625;-65
2024/01/26 00:42:01;;;;;;;3.90;2.70;;;;;;;8.39;99.61;99946.04;108177;1280;21983;-65
2024/01/26 00:44:27;;;;;;;4.40;3.30;;;;;;;8.39;99.60;99944.29;108140;1286;21995;-59
2024/01/26 00:46:52;;;;;;;4.10;2.80;;;;;;;8.38;99.64;99951.11;108300;1286;22480;-58
2024/01/26 00:49:18;;;;;;;4.50;2.60;;;;;;;8.38;99.46;99948.48;108158;1286;21984;-59
2024/01/26 00:51:44;;;;;;;4.10;2.70;;;;;;;8.39;99.13;99945.67;108144;1286;21994;-64
2024/01/26 00:54:09;;;;;;;4.10;2.50;;;;;;;8.38;99.28;99944.12;108205;1286;22015;-59
2024/01/26 00:56:35;;;;;;;4.70;2.80;;;;;;;8.38;98.80;99942.38;108131;1286;22021;-59
2024/01/26 00:59:00;;;;;;;4.60;2.90;;;;;;;8.37;98.70;99940.64;108200;1286;21996;-58
2024/01/26 01:01:26;;;;;;;3.90;2.80;;;;;;;8.36;98.29;99939.25;108136;1286;21986;-65
2024/01/26 01:03:51;;;;;;;3.70;2.60;;;;;;;8.34;98.40;99935.59;108163;1286;21985;-59
2024/01/26 01:06:17;;;;;;;4.80;2.80;;;;;;;8.31;98.57;99937.02;108114;1286;21973;-65
2024/01/26 01:08:44;;;;;;;5.80;3.20;;;;;;;8.28;98.42;99934.79;108272;1286;21989;-65
2024/01/26 01:11:09;;;;;;;5.10;3.30;;;;;;;8.27;98.46;99933.39;108307;1286;21982;-58
2024/01/26 01:13:36;;;;;;;4.80;3.30;;;;;;;8.25;98.62;99937.44;108163;1286;22005;-59
2024/01/26 01:16:02;;;;;;;4.40;3.20;;;;;;;8.23;98.51;99937.98;108171;1286;21987;-65
2024/01/26 01:18:28;;;;;;;6.10;3.60;;;;;;;8.23;98.41;99938.50;108283;1286;21990;-65
2024/01/26 01:20:56;;;;;;;5.90;3.60;;;;;;;8.23;98.30;99936.57;108128;1286;21999;-58
2024/01/26 01:23:21;;;;;;;7.40;4.10;;;;;;;8.23;98.52;99939.21;108221;1280;21995;-65
2024/01/26 01:25:47;;;;;;;6.50;4.20;;;;;;;8.22;98.70;99937.11;108303;1284;21987;-65
2024/01/26 01:28:12;;;;;;;5.60;3.90;;;;;;;8.18;98.94;99942.73;108183;1286;21995;-59
2024/01/26 01:30:38;;;;;;;5.70;3.60;;;;;;;8.17;98.94;99942.21;108100;1286;21992;-65
2024/01/26 01:33:04;;;;;;;6.10;4.00;;;;;;;8.15;99.50;99942.42;108124;1286;21989;-58
2024/01/26 01:35:30;;;;;;;5.40;3.60;;;;;;;8.16;99.30;99945.73;108133;1286;21984;-58
2024/01/26 01:37:55;;;;;;;7.30;3.70;;;;;;;8.16;99.02;99951.16;108119;1284;21988;-65
2024/01/26 01:40:21;;;;;;;6.40;3.60;;;;;;;8.10;99.59;99953.65;108088;1280;21992;-65
2024/01/26 01:42:47;;;;;;;6.80;3.70;;;;;;;8.05;99.91;99959.47;108109;1274;22027;-65
2024/01/26 01:45:13;;;;;;;4.70;3.50;;;;;;;7.97;100.00;99963.37;108169;1287;21983;-65
2024/01/26 01:47:39;;;;;;;4.70;3.20;;;;;;;8.00;99.76;99969.99;108096;1287;21986;-58
2024/01/26 01:50:06;;;;;;;6.40;3.80;;;;;;;7.97;99.57;99978.23;108162;1287;21987;-66
2024/01/26 01:52:32;;;;;;;6.20;3.20;;;;;;;7.95;99.32;99987.50;108149;1281;21990;-66
2024/01/26 01:54:58;;;;;;;5.70;3.70;;;;;;;7.95;98.38;99988.23;108175;1287;21995;-66
2024/01/26 01:57:23;;;;;;;4.70;2.90;;;;;;;7.93;97.94;99991.37;108095;1287;22003;-65
2024/01/26 01:59:49;;;;;;;3.90;2.50;;;;;;;7.90;97.65;99999.42;108079;1277;21993;-59
2024/01/26 02:02:14;;;;;;;4.80;3.00;;;;;;;7.84;97.81;100001.91;108244;1287;21985;-60
2024/01/26 02:04:40;;;;;;;4.60;2.90;;;;;;;7.81;97.32;100005.95;108175;1287;21986;-59
2024/01/26 02:07:05;;;;;;;5.20;2.90;;;;;;;7.78;97.04;100008.05;108130;1287;21991;-58
2024/01/26 02:09:31;;;;;;;4.70;2.90;;;;;;;7.75;96.75;100008.95;108154;1279;21992;-66
2024/01/26 02:11:57;;;;;;;4.50;2.60;;;;;;;7.72;96.48;100009.33;108242;1287;21980;-65
2024/01/26 02:14:23;;;;;;;4.50;2.90;;;;;;;7.68;96.18;100013.72;108192;1284;22026;-59
2024/01/26 02:16:55;;;;;;;4.50;3.10;;;;;;;7.63;95.95;100020.02;108218;1287;23644;-58
2024/01/26 02:19:21;;;;;;;3.60;2.10;;;;;;;7.54;95.90;100017.63;108215;1277;21987;-59
2024/01/26 02:21:47;;;;;;;3.50;2.20;;;;;;;7.39;96.24;100022.61;108145;1287;21996;-59
2024/01/26 02:24:13;;;;;;;3.40;2.00;;;;;;;7.35;96.07;100026.29;108156;1277;21989;-66
2024/01/26 02:26:39;;;;;;;3.30;1.90;;;;;;;7.22;96.42;100028.09;108121;1287;21992;-59
2024/01/26 02:29:05;;;;;;;3.70;2.20;;;;;;;7.25;96.22;100026.86;108194;1287;21994;-66
2024/01/26 02:31:31;;;;;;;4.00;1.50;;;;;;;7.17;95.78;100022.70;108270;1287;21989;-65
2024/01/26 02:33:56;;;;;;;3.10;1.70;;;;;;;7.08;95.87;100020.13;108284;1284;21987;-59
2024/01/26 02:36:22;;;;;;;3.30;1.70;;;;;;;6.94;96.12;100022.61;108149;1287;21989;-65
2024/01/26 02:38:47;;;;;;;3.30;1.70;;;;;;;6.88;96.55;100027.86;108174;1281;21995;-59
2024/01/26 02:41:13;;;;;;;2.60;1.40;;;;;;;6.85;96.34;100025.42;108157;1287;21981;-59
2024/01/26 02:43:39;;;;;;;2.80;1.50;;;;;;;6.74;96.43;100028.42;108197;1276;21986;-59
2024/01/26 02:46:10;;;;;;;2.60;1.20;;;;;;;6.74;96.18;100027.73;108206;1274;22003;-65
2024/01/26 02:48:36;;;;;;;2.70;1.50;;;;;;;6.78;95.16;100029.29;108175;1287;22029;-59
2024/01/26 02:51:02;;;;;;;1.90;1.00;;;;;;;6.80;94.68;100038.35;108125;1287;21989;-64
2024/01/26 02:53:28;;;;;;;2.80;1.30;;;;;;;6.74;93.88;100042.38;108126;1287;21989;-65
2024/01/26 02:55:53;;;;;;;3.70;1.30;;;;;;;6.71;93.65;100043.08;108177;1287;21990;-59
2024/01/26 02:58:19;;;;;;;2.80;1.30;;;;;;;6.60;93.72;100048.14;108216;1278;21995;-65
2024/01/26 03:00:45;;;;;;;2.30;1.20;;;;;;;6.62;93.51;100048.31;108184;1281;21941;-60
2024/01/26 03:03:10;;;;;;;2.10;1.00;;;;;;;6.61;93.33;100054.60;108174;1287;21980;-58
2024/01/26 03:05:36;;;;;;;2.70;1.00;;;;;;;6.50;92.91;100054.26;108145;1287;22156;-58
2024/01/26 03:08:01;;;;;;;3.40;1.30;;;;;;;6.42;93.11;100054.27;108160;1280;21988;-58
2024/01/26 03:10:27;;;;;;;2.70;1.20;;;;;;;6.42;92.80;100057.76;108119;1287;22043;-58
2024/01/26 03:12:53;;;;;;;1.60;0.90;;;;;;;6.39;92.45;100058.80;108202;1287;21992;-64
2024/01/26 03:15:18;;;;;;;2.30;1.00;;;;;;;6.29;92.58;100060.89;107414;1287;1002515;-65
2024/01/26 03:17:44;;;;;;;2.50;0.90;;;;;;;6.29;92.49;100059.48;107402;1287;1002871;-58
2024/01/26 03:20:10;;;;;;;2.70;0.90;;;;;;;6.32;91.74;100058.80;108196;1287;22072;-64
2024/01/26 03:22:36;;;;;;;1.50;0.80;;;;;;;6.32;91.46;100062.29;108259;1284;21986;-59
2024/01/26 03:25:03;;;;;;;1.10;0.60;;;;;;;6.32;91.51;100065.08;108264;1280;21988;-58
2024/01/26 03:27:29;;;;;;;2.10;1.00;;;;;;;6.31;91.15;100065.95;108275;1277;22026;-66
2024/01/26 03:29:55;;;;;;;1.70;0.70;;;;;;;6.28;91.06;100067.16;108191;1287;21987;-65
2024/01/26 03:32:24;;;;;;;1.70;0.90;;;;;;;6.27;91.24;100067.33;108109;1287;22040;-58
2024/01/26 03:34:50;;;;;;;1.90;0.90;;;;;;;6.25;91.21;100067.69;108272;1287;22019;-59
2024/01/26 03:37:15;;;;;;;2.00;1.10;;;;;;;6.24;91.38;100070.99;108278;1287;21999;-65
2024/01/26 03:39:41;;;;;;;2.20;0.90;;;;;;;6.27;91.63;100069.77;108202;1287;21999;-65
2024/01/26 03:42:10;;;;;;;2.70;1.00;;;;;;;6.31;91.79;100070.65;108109;1284;22002;-65
2024/01/26 03:44:36;;;;;;;4.70;1.10;;;;;;;6.34;91.89;100071.36;108165;1281;24053;-60
2024/01/26 03:47:03;;;;;;;2.20;1.10;;;;;;;6.35;91.81;100073.98;108209;1281;21988;-65
2024/01/26 03:49:29;;;;;;;4.30;0.90;;;;;;;6.35;91.93;100074.84;107449;1280;1002382;-59
2024/01/26 03:51:55;;;;;;;1.70;1.00;;;;;;;6.32;92.03;100079.71;108228;1287;21999;-65
2024/01/26 03:54:20;;;;;;;3.10;1.10;;;;;;;6.33;92.39;100082.33;108148;1287;21985;-65
2024/01/26 03:56:48;;;;;;;1.50;0.90;;;;;;;6.35;92.08;100085.12;108219;1287;21993;-64
2024/01/26 03:59:14;;;;;;;1.90;0.80;;;;;;;6.37;92.06;100089.65;108249;1287;21987;-65
2024/01/26 04:01:39;;;;;;;1.50;0.80;;;;;;;6.35;92.14;100086.33;108174;1287;22933;-58
2024/01/26 04:04:06;;;;;;;2.10;0.90;;;;;;;6.35;92.15;100088.43;108191;1287;22019;-65
2024/01/26 04:06:32;;;;;;;1.80;1.10;;;;;;;6.38;92.13;100090.00;108266;1287;22457;-65
2024/01/26 04:08:59;;;;;;;2.60;1.00;;;;;;;6.39;91.82;100090.17;108310;1280;21977;-65
2024/01/26 04:11:25;;;;;;;1.60;1.00;;;;;;;6.40;91.75;100086.68;108125;1287;21989;-65
2024/01/26 04:13:50;;;;;;;1.60;0.90;;;;;;;6.40;91.66;100096.96;108237;1287;21988;-59
2024/01/26 04:16:16;;;;;;;2.40;1.30;;;;;;;6.40;91.60;100100.29;108207;1287;21988;-65
2024/01/26 04:18:43;;;;;;;3.00;0.90;;;;;;;6.45;91.71;100103.06;108182;1281;22011;-65
2024/01/26 04:21:09;;;;;;;1.90;0.80;;;;;;;6.46;91.63;100109.34;108109;1287;22043;-64
2024/01/26 04:23:35;;;;;;;1.40;0.70;;;;;;;6.46;91.34;100113.88;108097;1278;21992;-58
2024/01/26 04:26:01;;;;;;;2.70;0.80;;;;;;;6.40;91.10;100115.97;108162;1275;21984;-65
2024/01/26 04:28:27;;;;;;;2.30;1.00;;;;;;;6.31;91.48;100120.48;108086;1280;21990;-65
2024/01/26 04:30:53;;;;;;;1.50;0.60;;;;;;;6.33;91.30;100120.33;108297;1284;1002331;-65
2024/01/26 04:33:18;;;;;;;1.70;0.80;;;;;;;6.35;91.17;100126.59;108235;1287;21997;-58
2024/01/26 04:35:44;;;;;;;1.90;0.80;;;;;;;6.38;90.93;100129.20;108276;1287;22000;-58
2024/01/26 04:38:10;;;;;;;1.90;0.70;;;;;;;6.33;90.97;100131.12;108194;1279;21999;-59
2024/01/26 04:40:38;;;;;;;1.20;0.70;;;;;;;6.38;90.89;100130.08;108128;1283;22006;-59
2024/01/26 04:43:05;;;;;;;2.10;0.80;;;;;;;6.52;90.82;100130.77;108165;1287;21972;-65
2024/01/26 04:45:31;;;;;;;1.50;0.80;;;;;;;6.54;90.02;100134.11;108258;1286;23057;-64
2024/01/26 04:47:56;;;;;;;1.50;0.70;;;;;;;6.46;89.83;100135.84;108190;1286;22837;-58
2024/01/26 04:50:22;;;;;;;1.90;0.80;;;;;;;6.54;89.76;100137.92;108134;1287;22455;-59
2024/01/26 04:52:49;;;;;;;2.70;0.90;;;;;;;6.61;89.66;100138.80;108038;1288;22014;-65
2024/01/26 04:55:15;;;;;;;1.50;0.60;;;;;;;6.61;89.84;100139.51;108102;1289;21992;-58
2024/01/26 04:57:40;;;;;;;2.90;0.80;;;;;;;6.54;89.87;100137.23;108220;1278;22003;-65
2024/01/26 05:00:07;;;;;;;3.90;1.00;;;;;;;6.54;89.80;100138.27;108074;1288;21987;-65
2024/01/26 05:02:33;;;;;;;1.70;0.90;;;;;;;6.54;89.89;100144.20;108167;1288;22001;-58
2024/01/26 05:04:59;;;;;;;3.00;0.80;;;;;;;6.44;89.93;100149.42;108161;1288;21992;-64
2024/01/26 05:07:24;;;;;;;2.00;1.00;;;;;;;6.40;90.44;100155.53;108114;1289;22005;-58
2024/01/26 05:09:50;;;;;;;1.30;0.90;;;;;;;6.33;91.51;100154.30;108157;1283;21994;-58
2024/01/26 05:12:16;;;;;;;2.40;1.00;;;;;;;6.15;92.54;100157.75;108156;1277;21997;-58
2024/01/26 05:14:42;;;;;;;2.80;1.00;;;;;;;6.19;93.31;100157.58;108134;1288;21994;-58
2024/01/26 05:17:07;;;;;;;3.10;1.10;;;;;;;6.19;93.13;100160.36;108123;1287;21999;-63
2024/01/26 05:19:33;;;;;;;1.90;1.00;;;;;;;6.15;93.31;100169.58;108163;1288;22469;-64
2024/01/26 05:21:59;;;;;;;1.80;1.10;;;;;;;6.21;93.19;100171.52;108144;1284;22001;-63
2024/01/26 05:24:24;;;;;;;3.20;1.40;;;;;;;6.12;93.70;100171.16;108181;1287;22004;-61
2024/01/26 05:26:50;;;;;;;1.80;1.20;;;;;;;6.09;93.93;100176.19;108135;1288;21999;-58
2024/01/26 05:29:16;;;;;;;2.50;1.20;;;;;;;6.12;93.56;100174.81;107951;1280;21987;-58
2024/01/26 05:31:42;;;;;;;3.60;1.30;;;;;;;6.04;93.92;100171.83;108132;1288;21992;-59
2024/01/26 05:34:08;;;;;;;2.40;1.10;;;;;;;6.14;93.52;100173.77;108114;1288;22001;-65
2024/01/26 05:36:42;;;;;;;3.00;1.40;;;;;;;6.02;94.22;100178.08;108171;1288;21993;-65
2024/01/26 05:39:09;;;;;;;1.80;1.10;;;;;;;6.11;93.91;100178.30;108107;1288;22024;-59
2024/01/26 05:41:34;;;;;;;3.10;1.20;;;;;;;6.24;92.77;100184.59;108163;1287;22477;-64
2024/01/26 05:44:00;;;;;;;2.90;1.40;;;;;;;6.26;92.27;100186.17;108125;1288;22002;-65
2024/01/26 05:46:26;;;;;;;12.20;1.40;;;;;;;6.21;92.55;100185.46;108103;1288;21980;-65
2024/01/26 05:48:51;;;;;;;1.70;1.30;;;;;;;6.26;92.26;100182.70;108096;1288;21995;-64
2024/01/26 05:51:17;;;;;;;2.80;1.00;;;;;;;6.27;92.47;100182.17;108124;1288;21989;-64
2024/01/26 05:53:42;;;;;;;2.50;1.10;;;;;;;6.31;92.08;100187.77;108082;1288;21984;-64
2024/01/26 05:56:08;;;;;;;5.40;1.20;;;;;;;6.34;91.76;100190.90;108089;1288;21989;-64
2024/01/26 05:58:34;;;;;;;4.80;2.20;;;;;;;6.31;91.56;100192.81;108120;1284;21990;-64
2024/01/26 06:00:59;;;;;;;2.60;1.30;;;;;;;6.32;91.48;100196.13;108104;1287;22023;-64
2024/01/26 06:03:25;;;;;;;2.20;1.30;;;;;;;6.24;91.77;100197.67;108144;1288;22024;-66
2024/01/26 06:05:50;;;;;;;2.00;1.10;;;;;;;6.27;91.66;100199.42;108090;1289;23622;-63
2024/01/26 06:08:16;;;;;;;3.10;1.40;;;;;;;6.24;91.63;100201.15;108196;1288;22004;-58
2024/01/26 06:10:42;;;;;;;3.00;1.60;;;;;;;6.15;92.34;100200.95;108067;1288;22004;-63
2024/01/26 06:13:08;;;;;;;2.10;1.10;;;;;;;6.18;92.96;100202.36;108107;1277;21985;-63
2024/01/26 06:15:37;;;;;;;2.10;1.00;;;;;;;6.27;92.52;100202.38;108131;1277;22031;-58
2024/01/26 06:18:03;;;;;;;4.00;1.60;;;;;;;6.20;93.24;100206.20;108125;1288;22087;-58
2024/01/26 06:20:31;;;;;;;2.30;0.90;;;;;;;6.23;93.06;100206.20;108112;1288;22000;-63
2024/01/26 06:23:00;;;;;;;2.20;1.30;;;;;;;6.31;92.44;100207.62;108101;1288;21992;-58
2024/01/26 06:25:26;;;;;;;2.80;1.50;;;;;;;6.32;92.32;100209.38;108145;1288;21991;-58
2024/01/26 06:27:52;;;;;;;2.20;1.20;;;;;;;6.35;92.05;100210.06;107258;1282;1002317;-63
2024/01/26 06:30:18;;;;;;;2.50;1.50;;;;;;;6.30;92.47;100218.23;108020;1275;21985;-63
2024/01/26 06:32:44;;;;;;;3.30;1.60;;;;;;;6.26;92.78;100220.33;108109;1287;21996;-60
2024/01/26 06:35:10;;;;;;;5.00;1.70;;;;;;;6.19;93.09;100226.23;108157;1284;21988;-65
2024/01/26 06:37:36;;;;;;;2.10;1.30;;;;;;;6.24;93.05;100227.46;108079;1280;21989;-59
2024/01/26 06:40:02;;;;;;;2.00;1.10;;;;;;;6.18;93.49;100227.61;108097;1288;22024;-64
2024/01/26 06:42:30;;;;;;;3.50;1.20;;;;;;;6.17;93.84;100219.08;108033;1281;21992;-64
2024/01/26 06:44:56;;;;;;;2.30;1.10;;;;;;;6.26;93.55;100219.98;108133;1288;22030;-64
2024/01/26 06:47:21;;;;;;;1.60;1.10;;;;;;;6.29;93.64;100225.73;108131;1287;22003;-62
2024/01/26 06:49:47;;;;;;;2.60;1.20;;;;;;;6.30;94.50;100225.40;108071;1288;21992;-59
2024/01/26 06:52:13;;;;;;;2.80;1.50;;;;;;;6.34;94.56;100225.23;108129;1281;21999;-64
2024/01/26 06:54:39;;;;;;;3.50;1.40;;;;;;;6.46;94.23;100223.33;108111;1288;21996;-59
2024/01/26 06:57:05;;;;;;;3.10;1.30;;;;;;;6.35;94.62;100227.66;108127;1277;21997;-64
2024/01/26 06:59:31;;;;;;;3.90;1.40;;;;;;;6.36;95.35;100226.98;108122;1277;21985;-64
2024/01/26 07:01:56;;;;;;;3.30;1.70;;;;;;;6.46;95.71;100227.34;108168;1283;21998;-64
2024/01/26 07:04:22;;;;;;;3.30;1.40;;;;;;;6.58;95.37;100228.60;108109;1288;21991;-58
2024/01/26 07:06:47;;;;;;;2.60;1.40;;;;;;;6.63;95.54;100229.81;108156;1288;22078;-59
2024/01/26 07:09:13;;;;;;;3.60;1.50;;;;;;;6.59;96.03;100231.20;108109;1288;22026;-59
2024/01/26 07:11:38;;;;;;;2.60;1.10;;;;;;;6.73;95.46;100229.30;108097;1288;21988;-63
2024/01/26 07:14:05;;;;;;;3.00;1.50;;;;;;;6.77;95.71;100230.02;108094;1288;21993;-64
2024/01/26 07:16:30;;;;;;;2.40;1.40;;;;;;;6.85;95.83;100228.45;108087;1288;22005;-59
2024/01/26 07:18:56;;;;;;;2.60;1.40;;;;;;;6.83;96.37;100230.02;108173;1288;22001;-59
2024/01/26 07:21:22;;;;;;;3.20;1.60;;;;;;;6.88;96.54;100229.14;108088;1288;23727;-60
2024/01/26 07:23:51;;;;;;;3.30;1.50;;;;;;;7.04;95.84;100229.50;108156;1288;22030;-63
2024/01/26 07:26:20;;;;;;;2.40;1.50;;;;;;;6.99;96.00;100234.21;107974;1287;22030;-59
2024/01/26 07:28:46;;;;;;;3.20;1.50;;;;;;;6.94;96.13;100240.31;108016;1288;23251;-62
2024/01/26 07:31:12;;;;;;;3.80;1.80;;;;;;;7.05;95.70;100235.61;108189;1288;22157;-64
2024/01/26 07:33:37;;;;;;;4.00;1.60;;;;;;;7.10;95.53;100239.27;108165;1277;21990;-58
2024/01/26 07:36:04;;;;;;;3.70;1.80;;;;;;;7.14;95.02;100239.79;108110;1285;21998;-58
2024/01/26 07:38:30;;;;;;;3.70;1.80;;;;;;;7.05;95.64;100237.88;108198;1288;21994;-60
2024/01/26 07:40:57;;;;;;;2.60;1.40;;;;;;;6.86;96.80;100242.39;108155;1288;22030;-62
2024/01/26 07:43:24;;;;;;;3.20;1.80;;;;;;;6.98;96.53;100239.09;108115;1288;22024;-63
2024/01/26 07:45:49;;;;;;;4.20;1.50;;;;;;;6.96;96.29;100238.39;107973;1288;160049;-59
2024/01/26 07:48:15;;;;;;;4.40;1.80;;;;;;;6.99;96.56;100239.45;108094;1277;22049;-64
2024/01/26 07:50:41;;;;;;;3.50;1.60;;;;;;;6.93;96.82;100237.52;107362;1287;1002665;-63
2024/01/26 07:53:08;;;;;;;3.00;1.80;;;;;;;6.97;97.14;100239.61;108123;1283;21984;-63
2024/01/26 07:55:34;;;;;;;3.60;1.70;;;;;;;7.01;96.43;100234.02;108128;1288;23753;-63
2024/01/26 07:58:00;;;;;;;2.60;1.50;;;;;;;6.95;97.14;100236.48;108170;1288;23624;-60
2024/01/26 08:00:26;;;;;;;3.00;1.60;;;;;;;7.13;96.62;100239.95;108093;1283;21991;-63
2024/01/26 08:02:52;;;;;;;3.40;1.50;;;;;;;7.02;97.10;100243.80;108098;1285;22026;-62
2024/01/26 08:05:18;;;;;;;3.30;1.70;;;;;;;7.10;97.21;100242.77;108159;1287;23056;-59
2024/01/26 08:07:44;;;;;;;4.50;1.60;;;;;;;7.10;96.92;100248.33;108075;1287;22029;-62
2024/01/26 08:10:10;;;;;;;5.20;1.50;;;;;;;7.15;97.01;100253.05;108108;1277;21995;-59
2024/01/26 08:12:36;;;;;;;3.80;1.70;;;;;;;7.19;96.96;100257.08;108169;1288;22052;-62
2024/01/26 08:15:06;;;;;;;2.30;1.40;;;;;;;7.30;96.37;100255.14;108073;1289;21992;-58
2024/01/26 08:17:33;;;;;;;3.30;1.40;;;;;;;7.31;96.18;100255.48;108155;1277;21979;-62
2024/01/26 08:19:58;;;;;;;3.80;2.10;;;;;;;7.32;95.80;100260.03;108130;1288;22030;-63
2024/01/26 08:22:25;;;;;;;4.40;2.40;;;;;;;7.30;95.75;100264.38;108098;1286;21990;-60
2024/01/26 08:24:51;;;;;;;4.60;2.70;;;;;;;7.28;96.09;100271.88;108129;1277;21999;-58
2024/01/26 08:27:17;;;;;;;4.60;2.30;;;;;;;7.27;96.57;100269.27;108062;1288;22181;-62
2024/01/26 08:29:43;;;;;;;4.00;2.10;;;;;;;7.20;96.64;100275.04;108101;1286;22035;-63
2024/01/26 08:32:09;;;;;;;3.60;2.10;;;;;;;7.28;96.23;100277.83;108108;1277;22179;-62
2024/01/26 08:34:36;;;;;;;3.70;2.20;;;;;;;7.34;95.75;100271.72;108133;1288;21993;-58
2024/01/26 08:37:03;;;;;;;3.70;2.10;;;;;;;7.40;95.60;100271.02;108105;1288;21993;-59
2024/01/26 08:39:29;;;;;;;3.80;2.10;;;;;;;7.42;95.97;100268.39;108118;1288;22069;-60
2024/01/26 08:41:56;;;;;;;3.40;1.80;;;;;;;7.32;96.27;100267.88;108111;1288;22458;-59
2024/01/26 08:44:22;;;;;;;4.20;2.00;;;;;;;7.32;96.26;100271.89;108137;1288;21999;-58
2024/01/26 08:46:48;;;;;;;2.70;1.70;;;;;;;7.24;96.18;100273.81;108136;1288;21993;-61
2024/01/26 08:49:15;;;;;;;5.30;2.60;;;;;;;7.26;96.58;100270.66;108106;1277;21991;-58
2024/01/26 08:51:41;;;;;;;2.90;2.00;;;;;;;7.42;96.06;100269.61;108110;1288;22464;-63
2024/01/26 08:54:07;;;;;;;4.50;1.80;;;;;;;7.38;96.26;100266.13;108109;1288;21985;-62
2024/01/26 08:56:34;;;;;;;4.10;2.00;;;;;;;7.30;96.63;100264.55;108126;1288;21994;-62
2024/01/26 08:58:59;;;;;;;3.30;2.00;;;;;;;7.36;96.59;100267.34;108017;1284;22030;-58
2024/01/26 09:01:25;;;;;;;3.00;1.70;;;;;;;7.37;96.63;100269.79;108110;1288;21994;-62
2024/01/26 09:03:51;;;;;;;3.80;1.80;;;;;;;7.47;96.21;100269.95;108132;1280;21992;-58
2024/01/26 09:06:16;;;;;;;3.30;2.00;;;;;;;7.53;96.26;100265.76;108145;1283;22229;-59
2024/01/26 09:08:42;;;;;;;2.40;1.60;;;;;;;7.49;96.30;100267.52;108096;1278;22008;-61
2024/01/26 09:11:07;;;;;;;2.70;1.70;;;;;;;7.54;95.64;100268.54;108089;1288;21998;-61
2024/01/26 09:13:33;;;;;;;2.40;1.60;;;;;;;7.73;95.39;100269.02;108003;1288;21982;-57
2024/01/26 09:15:58;;;;;;;2.40;1.40;;;;;;;7.72;94.88;100272.19;108114;1282;21989;-61
2024/01/26 09:18:24;;;;;;;3.60;1.70;;;;;;;7.79;94.54;100273.92;108092;1288;21993;-63
2024/01/26 09:20:50;;;;;;;3.50;1.80;;;;;;;7.81;94.03;100270.06;108089;1283;21992;-57
2024/01/26 09:23:16;;;;;;;2.60;1.30;;;;;;;7.84;93.80;100273.02;108078;1288;22024;-58
2024/01/26 09:25:48;;;;;;;3.70;1.90;;;;;;;7.85;93.48;100269.00;108083;1288;21998;-57
2024/01/26 09:28:13;;;;;;;2.60;1.60;;;;;;;7.77;92.89;100264.14;108113;1288;21997;-57
2024/01/26 09:30:39;;;;;;;3.60;1.50;;;;;;;7.74;92.17;100262.56;108056;1288;22155;-58
2024/01/26 09:33:04;;;;;;;2.20;1.30;;;;;;;7.79;92.65;100262.89;107948;1280;21981;-57
2024/01/26 09:35:30;;;;;;;2.70;1.30;;;;;;;7.93;92.80;100263.56;108075;1280;22011;-59
2024/01/26 09:37:55;;;;;;;2.40;1.40;;;;;;;8.07;92.77;100264.55;108144;1284;23823;-58
2024/01/26 09:40:22;;;;;;;2.40;1.40;;;;;;;8.11;91.84;100261.75;108099;1288;23625;-57
2024/01/26 09:42:47;;;;;;;3.40;1.60;;;;;;;8.06;91.54;100260.38;107979;1288;22000;-57
2024/01/26 09:45:13;;;;;;;3.00;1.50;;;;;;;8.19;91.79;100262.41;107994;1283;21989;-57
2024/01/26 09:47:39;;;;;;;4.20;1.40;;;;;;;8.23;91.50;100266.95;108157;1276;22001;-61
2024/01/26 09:50:06;;;;;;;1.80;1.30;;;;;;;8.12;90.85;100262.09;108304;1286;22007;-58
2024/01/26 09:52:34;;;;;;;3.00;1.40;;;;;;;8.05;91.32;100265.80;108291;1281;21991;-59
2024/01/26 09:55:00;;;;;;;2.40;1.20;;;;;;;8.11;91.25;100267.17;108246;1280;21989;-62
2024/01/26 09:57:25;;;;;;;2.40;1.30;;;;;;;8.14;90.88;100266.45;108129;1286;22740;-58
2024/01/26 09:59:53;;;;;;;2.20;1.30;;;;;;;8.24;90.92;100270.78;107873;1286;21996;-58
2024/01/26 10:02:21;;;;;;;2.50;1.40;;;;;;;8.19;90.71;100267.83;108105;1286;21994;-61
2024/01/26 10:04:47;;;;;;;1.70;1.10;;;;;;;8.15;89.97;100265.94;108089;1286;21989;-61
2024/01/26 10:07:12;;;;;;;2.40;1.20;;;;;;;8.26;90.70;100263.44;108308;1286;22171;-61
2024/01/26 10:09:38;;;;;;;2.60;1.30;;;;;;;8.36;91.52;100257.79;108159;1286;21990;-59
2024/01/26 10:12:05;;;;;;;3.00;1.50;;;;;;;8.39;91.22;100257.42;108271;1286;21992;-58
2024/01/26 10:14:31;;;;;;;2.50;1.40;;;;;;;8.41;90.78;100254.45;108276;1286;22001;-59
2024/01/26 10:16:57;;;;;;;2.20;1.20;;;;;;;8.37;90.45;100249.40;108301;1286;21987;-59
2024/01/26 10:19:27;;;;;;;2.50;1.60;;;;;;;8.14;89.84;100250.36;108160;1286;21999;-62
2024/01/26 10:21:53;;;;;;;;;;;;;;;8.18;90.04;100254.71;108125;1286;21976;-60
2024/01/26 10:24:25;;;;;;;2.00;1.10;;;;;;;8.35;90.49;100255.00;108122;1286;22030;-62
2024/01/26 10:26:51;;;;;;;3.30;1.70;;;;;;;8.27;91.12;100253.83;108136;1286;22001;-62
2024/01/26 10:29:17;;;;;;;2.80;1.60;;;;;;;8.23;90.73;100254.52;108131;1281;21998;-62
2024/01/26 10:31:45;;;;;;;2.50;1.20;;;;;;;8.10;90.29;100252.48;108114;1286;21992;-59
2024/01/26 10:34:14;;;;;;;5.60;3.10;;;;;;;8.22;91.41;100251.22;108180;1273;21992;-60
2024/01/26 10:36:47;;;;;;;2.40;1.40;;;;;;;8.18;89.66;100259.98;108193;1286;22466;-58
2024/01/26 10:39:24;;;;;;;3.60;2.20;;;;;;;8.35;89.94;100250.63;108120;1286;21994;-62
2024/01/26 10:41:52;;;;;;;8.60;3.50;;;;;;;8.30;89.90;100256.59;108238;1286;21998;-58
2024/01/26 10:44:18;;;;;;;6.80;4.30;;;;;;;8.27;89.17;100252.06;107461;1286;1002515;-59
2024/01/26 10:46:45;;;;;;;2.00;1.30;;;;;;;8.36;89.29;100256.40;108275;1286;22000;-59
2024/01/26 10:49:10;;;;;;;2.10;1.30;;;;;;;8.34;89.43;100258.16;108128;1288;21997;-60
2024/01/26 10:51:37;;;;;;;2.10;1.00;;;;;;;8.28;89.28;100253.98;108014;1288;21990;-61
2024/01/26 10:54:10;;;;;;;2.30;1.20;;;;;;;8.31;89.23;100256.59;108143;1276;21998;-61
2024/01/26 10:56:40;;;;;;;2.40;1.20;;;;;;;8.28;89.31;100250.84;108135;1288;22010;-59
2024/01/26 10:59:07;;;;;;;1.70;1.10;;;;;;;8.24;90.10;100251.04;108127;1288;21992;-61
2024/01/26 11:01:33;;;;;;;2.20;1.20;;;;;;;8.14;89.27;100246.02;108159;1286;21996;-59
2024/01/26 11:03:59;;;;;;;2.00;1.10;;;;;;;8.17;88.95;100249.48;108047;1288;21991;-61
2024/01/26 11:06:26;;;;;;;2.30;1.10;;;;;;;8.18;88.34;100246.52;108152;1288;22008;-60
2024/01/26 11:08:56;;;;;;;3.80;2.20;;;;;;;8.33;88.51;100252.05;108160;1288;21992;-58
2024/01/26 11:11:21;;;;;;;6.20;2.60;;;;;;;8.32;87.47;100252.58;108190;1278;21958;-60
2024/01/26 11:13:52;;;;;;;11.60;6.20;;;;;;;8.36;87.70;100250.98;108049;1275;21990;-60
2024/01/26 11:16:18;;;;;;;4.40;2.30;;;;;;;8.33;87.87;100246.10;108134;1288;23746;-61
2024/01/26 11:18:43;;;;;;;2.70;1.60;;;;;;;8.14;86.62;100248.45;108157;1276;21992;-62
2024/01/26 11:21:17;;;;;;;2.70;1.30;;;;;;;8.08;86.30;100251.63;108053;1288;21992;-62